createdAt,value
2019-04-21T00:00:31.941Z,48.73
2019-04-21T00:03:08.308Z,48.76
2019-04-21T00:05:53.312Z,48.82
2019-04-21T00:08:33.692Z,49.34
2019-04-21T00:10:57.832Z,49.46
2019-04-21T00:13:20.511Z,49.63
2019-04-21T00:15:46.620Z,49.63
2019-04-21T00:18:30.177Z,49.58
2019-04-21T00:21:12.361Z,49.66
2019-04-21T00:23:51.488Z,49.69
2019-04-21T00:26:21.167Z,49.72
2019-04-21T00:28:59.191Z,49.85
2019-04-21T00:31:24.763Z,49.90
2019-04-21T00:33:39.868Z,50.04
2019-04-21T00:36:14.822Z,50.17
2019-04-21T00:39:09.898Z,50.19
2019-04-21T00:41:30.839Z,50.33
2019-04-21T00:43:55.388Z,50.41
2019-04-21T00:46:32.338Z,50.45
2019-04-21T00:49:01.316Z,50.58
2019-04-21T00:51:47.043Z,50.74
2019-04-21T00:54:16.870Z,50.78
2019-04-21T00:56:45.582Z,50.83
2019-04-21T00:59:14.910Z,50.89
2019-04-21T01:01:46.028Z,51.04
2019-04-21T01:04:15.410Z,51.10
2019-04-21T01:06:49.662Z,51.17
2019-04-21T01:09:13.832Z,51.27
2019-04-21T01:11:52.036Z,51.38
2019-04-21T01:14:30.409Z,51.38
2019-04-21T01:16:56.154Z,51.45
2019-04-21T01:19:21.124Z,51.59
2019-04-21T01:21:32.574Z,51.68
2019-04-21T01:24:11.433Z,51.79
2019-04-21T01:26:47.061Z,51.94
2019-04-21T01:29:19.338Z,52.07
2019-04-21T01:31:57.318Z,52.22
2019-04-21T01:34:28.826Z,52.32
2019-04-21T01:36:58.688Z,52.51
2019-04-21T01:39:34.540Z,52.61
2019-04-21T01:42:03.830Z,52.73
2019-04-21T01:44:38.822Z,52.83
2019-04-21T01:46:58.207Z,52.93
2019-04-21T01:49:26.431Z,53.05
2019-04-21T01:54:55.201Z,53.14
2019-04-21T01:57:22.915Z,53.24
2019-04-21T01:59:52.751Z,53.30
2019-04-21T02:02:36.359Z,53.38
2019-04-21T02:05:10.465Z,53.50
2019-04-21T02:07:34.535Z,53.66
2019-04-21T02:10:11.183Z,53.75
2019-04-21T02:12:41.016Z,53.75
2019-04-21T02:15:11.478Z,53.92
2019-04-21T02:17:40.976Z,54.26
2019-04-21T02:20:02.706Z,54.27
2019-04-21T02:22:59.149Z,54.39
2019-04-21T02:25:18.180Z,54.69
2019-04-21T02:27:42.697Z,54.85
2019-04-21T02:30:29.617Z,54.93
2019-04-21T02:33:05.918Z,55.06
2019-04-21T02:35:45.572Z,55.19
2019-04-21T02:38:03.826Z,55.33
2019-04-21T02:40:44.967Z,55.33
2019-04-21T02:43:05.419Z,55.45
2019-04-21T02:45:43.357Z,55.54
2019-04-21T02:48:22.627Z,55.64
2019-04-21T02:50:37.595Z,55.82
2019-04-21T02:53:16.446Z,55.94
2019-04-21T02:55:36.697Z,55.90
2019-04-21T02:58:39.904Z,56.22
2019-04-21T03:01:23.643Z,56.29
2019-04-21T03:03:58.806Z,56.37
2019-04-21T03:06:43.775Z,56.54
2019-04-21T03:09:16.024Z,56.69
2019-04-21T03:11:36.407Z,56.83
2019-04-21T03:14:16.041Z,56.95
2019-04-21T03:16:31.253Z,57.07
2019-04-21T03:19:20.451Z,57.22
2019-04-21T03:21:52.136Z,57.46
2019-04-21T03:24:24.994Z,57.54
2019-04-21T03:29:20.314Z,57.77
2019-04-21T03:32:15.940Z,57.97
2019-04-21T03:34:41.182Z,58.07
2019-04-21T03:42:01.958Z,58.45
2019-04-21T03:44:43.661Z,58.59
2019-04-21T03:46:55.652Z,58.72
2019-04-21T03:49:40.722Z,58.94
2019-04-21T03:52:03.354Z,58.96
2019-04-21T03:54:37.086Z,59.13
2019-04-21T03:57:21.831Z,59.08
2019-04-21T03:59:31.678Z,59.22
2019-04-21T04:02:23.030Z,59.24
2019-04-21T04:05:03.343Z,59.29
2019-04-21T04:07:32.976Z,59.40
2019-04-21T04:10:07.754Z,59.41
2019-04-21T04:15:00.661Z,59.53
2019-04-21T04:17:36.452Z,59.85
2019-04-21T04:20:07.859Z,59.88
2019-04-21T04:22:37.893Z,59.97
2019-04-21T04:25:11.466Z,60.25
2019-04-21T04:27:51.305Z,60.35
2019-04-21T04:30:19.363Z,60.29
2019-04-21T04:35:22.320Z,60.36
2019-04-21T04:43:07.818Z,60.31
2019-04-21T04:48:11.508Z,60.31
2019-04-21T04:50:41.157Z,60.38
2019-04-21T04:53:01.966Z,60.38
2019-04-21T04:55:38.909Z,60.34
2019-04-21T04:58:15.559Z,60.45
2019-04-21T05:03:14.939Z,60.40
2019-04-21T05:06:37.221Z,60.43
2019-04-21T05:14:03.028Z,59.83
2019-04-21T05:19:10.725Z,59.57
2019-04-21T05:23:52.538Z,59.24
2019-04-21T05:26:14.406Z,59.08
2019-04-21T05:28:47.555Z,58.98
2019-04-21T05:31:34.409Z,58.84
2019-04-21T05:34:06.085Z,58.70
2019-04-21T05:36:37.885Z,58.54
2019-04-21T05:39:10.674Z,58.56
2019-04-21T05:41:32.385Z,58.60
2019-04-21T05:44:09.883Z,58.40
2019-04-21T05:46:53.475Z,58.24
2019-04-21T05:49:15.004Z,58.18
2019-04-21T05:51:55.777Z,58.02
2019-04-21T05:54:40.914Z,57.80
2019-04-21T05:57:06.992Z,57.71
2019-04-21T05:59:37.618Z,57.56
2019-04-21T06:02:19.126Z,57.16
2019-04-21T06:05:02.052Z,57.01
2019-04-21T06:07:21.269Z,56.83
2019-04-21T06:09:54.230Z,56.45
2019-04-21T06:12:14.764Z,56.00
2019-04-21T06:14:49.439Z,55.88
2019-04-21T06:17:23.740Z,55.67
2019-04-21T06:20:10.508Z,55.40
2019-04-21T06:22:17.766Z,55.39
2019-04-21T06:25:21.574Z,55.13
2019-04-21T06:27:29.936Z,55.01
2019-04-21T06:29:55.858Z,54.66
2019-04-21T06:32:38.162Z,54.37
2019-04-21T06:37:43.224Z,53.87
2019-04-21T06:40:21.522Z,53.88
2019-04-21T06:42:33.728Z,53.65
2019-04-21T06:45:08.801Z,53.46
2019-04-21T06:47:51.208Z,53.27
2019-04-21T06:50:07.615Z,53.15
2019-04-21T06:55:16.987Z,52.75
2019-04-21T06:57:40.244Z,52.53
2019-04-21T07:00:06.210Z,52.31
2019-04-21T07:03:00.076Z,52.14
2019-04-21T07:05:15.708Z,51.87
2019-04-21T07:07:55.164Z,51.74
2019-04-21T07:10:14.344Z,51.60
2019-04-21T07:12:45.299Z,50.79
2019-04-21T07:15:19.224Z,50.85
2019-04-21T07:17:54.273Z,50.79
2019-04-21T07:20:21.490Z,50.59
2019-04-21T07:22:55.232Z,50.20
2019-04-21T07:25:28.436Z,49.90
2019-04-21T07:27:58.829Z,49.72
2019-04-21T07:30:32.324Z,49.55
2019-04-21T07:33:07.731Z,49.26
2019-04-21T07:35:31.951Z,48.81
2019-04-21T07:38:04.264Z,48.68
2019-04-21T07:40:29.129Z,48.71
2019-04-21T07:42:57.877Z,48.33
2019-04-21T07:45:30.179Z,48.15
2019-04-21T07:48:09.327Z,48.14
2019-04-21T07:51:00.881Z,48.38
2019-04-21T07:53:38.646Z,47.96
2019-04-21T07:55:43.154Z,48.10
2019-04-21T07:58:37.393Z,47.90
2019-04-21T08:01:05.641Z,47.37
2019-04-21T08:03:34.963Z,47.49
2019-04-21T08:06:02.391Z,47.20
2019-04-21T08:08:34.237Z,46.91
2019-04-21T08:11:01.627Z,46.66
2019-04-21T08:16:10.891Z,46.52
2019-04-21T08:21:11.240Z,45.40
2019-04-21T08:23:43.478Z,45.53
2019-04-21T08:26:15.652Z,45.44
2019-04-21T08:28:45.726Z,45.10
2019-04-21T08:31:27.849Z,45.01
2019-04-21T08:33:55.992Z,43.65
2019-04-21T08:36:25.004Z,43.60
2019-04-21T08:38:53.541Z,43.07
2019-04-21T08:41:18.483Z,42.95
2019-04-21T08:43:51.399Z,42.02
2019-04-21T08:46:24.117Z,41.70
2019-04-21T08:49:03.839Z,41.22
2019-04-21T08:54:04.158Z,39.85
2019-04-21T08:56:48.382Z,38.72
2019-04-21T08:59:38.821Z,37.77
2019-04-21T09:02:23.134Z,37.40
2019-04-21T09:04:55.658Z,36.04
2019-04-21T09:07:25.820Z,36.22
2019-04-21T09:09:53.697Z,35.94
2019-04-21T09:12:21.245Z,35.32
2019-04-21T09:14:54.261Z,35.23
2019-04-21T09:17:23.605Z,35.26
2019-04-21T09:20:07.809Z,34.92
2019-04-21T09:22:30.225Z,34.38
2019-04-21T09:25:04.353Z,34.29
2019-04-21T09:27:30.799Z,34.58
2019-04-21T09:29:54.277Z,34.38
2019-04-21T09:32:22.172Z,34.27
2019-04-21T09:34:49.603Z,33.93
2019-04-21T09:37:35.316Z,33.80
2019-04-21T09:39:55.137Z,32.68
2019-04-21T09:42:32.278Z,33.10
2019-04-21T09:44:58.060Z,33.50
2019-04-21T09:47:34.174Z,33.14
2019-04-21T09:49:56.305Z,33.29
2019-04-21T09:52:36.116Z,33.43
2019-04-21T09:55:04.940Z,32.99
2019-04-21T09:57:40.498Z,33.13
2019-04-21T10:00:10.020Z,32.84
2019-04-21T10:02:43.878Z,33.02
2019-04-21T10:05:06.085Z,33.03
2019-04-21T10:07:41.680Z,32.61
2019-04-21T10:10:08.404Z,32.48
2019-04-21T10:12:37.802Z,32.44
2019-04-21T10:15:08.602Z,33.03
2019-04-21T10:17:58.371Z,32.81
2019-04-21T10:20:28.528Z,32.80
2019-04-21T10:22:59.396Z,33.69
2019-04-21T10:25:28.950Z,33.43
2019-04-21T10:27:59.064Z,33.12
2019-04-21T10:30:28.744Z,32.94
2019-04-21T10:32:58.486Z,32.44
2019-04-21T10:35:28.881Z,31.99
2019-04-21T10:38:12.906Z,32.79
2019-04-21T10:40:32.626Z,33.15
2019-04-21T10:43:01.853Z,32.09
2019-04-21T10:45:31.309Z,32.38
2019-04-21T10:48:01.031Z,32.20
2019-04-21T10:50:31.406Z,32.21
2019-04-21T10:53:18.822Z,32.27
2019-04-21T10:56:00.484Z,31.71
2019-04-21T10:58:24.565Z,32.58
2019-04-21T11:00:57.931Z,32.89
2019-04-21T11:03:29.196Z,31.95
2019-04-21T11:06:01.076Z,32.38
2019-04-21T11:08:37.898Z,31.95
2019-04-21T11:11:06.127Z,31.23
2019-04-21T11:13:36.738Z,31.45
2019-04-21T11:16:06.579Z,31.84
2019-04-21T11:18:36.050Z,30.75
2019-04-21T11:21:06.907Z,30.91
2019-04-21T11:23:37.498Z,30.50
2019-04-21T11:26:07.317Z,30.31
2019-04-21T11:28:36.883Z,30.72
2019-04-21T11:31:07.024Z,29.67
2019-04-21T11:33:37.633Z,29.58
2019-04-21T11:36:09.056Z,30.25
2019-04-21T11:39:05.484Z,29.71
2019-04-21T11:41:21.606Z,29.70
2019-04-21T11:43:51.111Z,29.80
2019-04-21T11:46:22.520Z,29.69
2019-04-21T11:48:52.551Z,29.26
2019-04-21T11:51:22.768Z,29.23
2019-04-21T11:53:52.872Z,28.67
2019-04-21T11:56:23.153Z,28.63
2019-04-21T11:58:53.998Z,28.67
2019-04-21T12:01:23.679Z,28.56
2019-04-21T12:03:53.792Z,28.78
2019-04-21T12:06:32.466Z,28.80
2019-04-21T12:08:57.673Z,28.91
2019-04-21T12:11:25.713Z,28.54
2019-04-21T12:13:56.243Z,28.24
2019-04-21T12:16:26.781Z,27.51
2019-04-21T12:18:56.793Z,27.47
2019-04-21T12:21:29.608Z,26.20
2019-04-21T12:23:58.605Z,25.28
2019-04-21T12:26:28.363Z,25.98
2019-04-21T12:28:57.893Z,25.76
2019-04-21T12:31:35.866Z,25.19
2019-04-21T12:34:08.165Z,25.74
2019-04-21T12:36:38.050Z,26.42
2019-04-21T12:39:10.692Z,26.90
2019-04-21T12:41:40.587Z,26.50
2019-04-21T12:44:10.826Z,26.16
2019-04-21T12:46:40.424Z,26.15
2019-04-21T12:49:09.993Z,26.20
2019-04-21T12:51:39.825Z,26.00
2019-04-21T12:54:11.876Z,26.14
2019-04-21T12:56:43.352Z,25.44
2019-04-21T12:59:12.939Z,25.90
2019-04-21T13:01:43.106Z,25.40
2019-04-21T13:04:13.533Z,25.37
2019-04-21T13:06:43.574Z,25.22
2019-04-21T13:09:16.736Z,25.89
2019-04-21T13:11:44.361Z,25.26
2019-04-21T13:14:13.824Z,25.87
2019-04-21T13:16:43.480Z,25.99
2019-04-21T13:19:13.477Z,25.50
2019-04-21T13:21:42.958Z,25.51
2019-04-21T13:24:13.613Z,25.15
2019-04-21T13:26:49.153Z,25.40
2019-04-21T13:29:14.643Z,25.94
2019-04-21T13:31:44.500Z,25.94
2019-04-21T13:34:14.168Z,26.12
2019-04-21T13:36:43.793Z,26.39
2019-04-21T13:42:02.783Z,26.07
2019-04-21T13:44:24.941Z,26.43
2019-04-21T13:46:54.591Z,26.59
2019-04-21T13:49:25.253Z,26.25
2019-04-21T13:51:56.047Z,26.71
2019-04-21T13:54:27.329Z,26.45
2019-04-21T13:56:58.498Z,26.45
2019-04-21T13:59:28.677Z,26.31
2019-04-21T14:01:58.479Z,26.76
2019-04-21T14:04:29.452Z,26.70
2019-04-21T14:07:00.393Z,26.84
2019-04-21T14:09:43.143Z,26.11
2019-04-21T14:12:03.421Z,24.87
2019-04-21T14:14:34.458Z,25.32
2019-04-21T14:17:05.466Z,25.35
2019-04-21T14:19:35.299Z,25.18
2019-04-21T14:22:05.633Z,25.11
2019-04-21T14:24:37.090Z,25.12
2019-04-21T14:27:08.085Z,25.14
2019-04-21T14:29:37.738Z,26.01
2019-04-21T14:32:10.490Z,25.13
2019-04-21T14:34:40.060Z,24.77
2019-04-21T14:37:10.886Z,24.88
2019-04-21T14:39:53.888Z,25.23
2019-04-21T14:42:14.065Z,24.78
2019-04-21T14:44:44.988Z,24.60
2019-04-21T14:47:20.872Z,24.13
2019-04-21T14:50:09.308Z,23.92
2019-04-21T14:52:39.241Z,23.73
2019-04-21T14:55:10.394Z,23.66
2019-04-21T14:57:41.065Z,23.66
2019-04-21T15:00:13.406Z,23.47
2019-04-21T15:02:43.957Z,23.32
2019-04-21T15:05:13.819Z,23.62
2019-04-21T15:07:43.506Z,23.53
2019-04-21T15:10:20.016Z,23.73
2019-04-21T15:12:45.854Z,23.27
2019-04-21T15:15:16.069Z,23.85
2019-04-21T15:17:46.297Z,23.51
2019-04-21T15:20:17.787Z,24.11
2019-04-21T15:22:48.296Z,23.34
2019-04-21T15:25:18.387Z,23.31
2019-04-21T15:27:48.762Z,22.77
2019-04-21T15:30:18.723Z,22.83
2019-04-21T15:32:48.553Z,22.33
2019-04-21T15:35:19.498Z,22.15
2019-04-21T15:37:49.838Z,22.38
2019-04-21T15:40:31.456Z,23.08
2019-04-21T15:42:50.700Z,23.38
2019-04-21T15:45:20.995Z,23.63
2019-04-21T15:47:51.797Z,24.27
2019-04-21T15:50:23.074Z,24.50
2019-04-21T15:52:53.913Z,24.60
2019-04-21T15:55:37.166Z,24.60
2019-04-21T15:58:12.046Z,24.17
2019-04-21T16:00:56.574Z,24.09
2019-04-21T16:03:26.812Z,24.17
2019-04-21T16:05:56.404Z,24.01
2019-04-21T16:08:27.089Z,23.95
2019-04-21T16:11:00.265Z,23.84
2019-04-21T16:13:27.781Z,23.52
2019-04-21T16:15:58.688Z,23.66
2019-04-21T16:18:28.401Z,23.89
2019-04-21T16:20:57.864Z,24.33
2019-04-21T16:23:28.577Z,24.85
2019-04-21T16:25:59.125Z,24.93
2019-04-21T16:28:29.083Z,24.99
2019-04-21T16:30:58.690Z,25.21
2019-04-21T16:33:29.285Z,25.26
2019-04-21T16:35:59.824Z,25.16
2019-04-21T16:38:31.422Z,24.93
2019-04-21T16:41:06.501Z,24.56
2019-04-21T16:43:33.375Z,24.62
2019-04-21T16:46:02.920Z,24.32
2019-04-21T16:48:33.750Z,24.13
2019-04-21T16:51:03.702Z,24.36
2019-04-21T16:53:35.515Z,24.44
2019-04-21T16:56:17.107Z,24.73
2019-04-21T16:58:48.484Z,24.92
2019-04-21T17:01:21.547Z,25.12
2019-04-21T17:03:50.872Z,25.39
2019-04-21T17:06:20.469Z,25.51
2019-04-21T17:08:50.586Z,25.69
2019-04-21T17:11:26.203Z,25.65
2019-04-21T17:13:51.978Z,25.63
2019-04-21T17:17:00.278Z,25.47
2019-04-21T17:19:01.838Z,25.08
2019-04-21T17:21:25.812Z,25.07
2019-04-21T17:23:56.628Z,24.65
2019-04-21T17:26:27.013Z,24.64
2019-04-21T17:28:56.847Z,24.84
2019-04-21T17:31:26.773Z,25.13
2019-04-21T17:34:02.044Z,25.27
2019-04-21T17:36:29.324Z,25.42
2019-04-21T17:39:00.084Z,25.83
2019-04-21T17:41:39.336Z,25.70
2019-04-21T17:44:02.433Z,25.97
2019-04-21T17:46:40.766Z,26.09
2019-04-21T17:49:03.566Z,26.49
2019-04-21T17:51:35.221Z,26.55
2019-04-21T17:54:21.111Z,26.57
2019-04-21T17:57:07.530Z,26.78
2019-04-21T17:59:46.353Z,26.81
2019-04-21T18:02:03.732Z,26.96
2019-04-21T18:04:38.065Z,27.32
2019-04-21T18:07:15.225Z,27.40
2019-04-21T18:09:56.398Z,27.58
2019-04-21T18:12:32.244Z,27.78
2019-04-21T18:14:59.198Z,27.92
2019-04-21T18:17:16.510Z,28.05
2019-04-21T18:19:49.163Z,28.24
2019-04-21T18:22:39.156Z,28.49
2019-04-21T18:25:20.351Z,28.65
2019-04-21T18:27:40.868Z,28.76
2019-04-21T18:30:36.071Z,28.93
2019-04-21T18:33:14.167Z,29.13
2019-04-21T18:35:42.993Z,29.27
2019-04-21T18:38:21.918Z,29.53
2019-04-21T18:40:50.274Z,29.73
2019-04-21T18:43:53.246Z,29.93
2019-04-21T18:46:13.554Z,29.98
2019-04-21T18:48:36.413Z,30.20
2019-04-21T18:51:06.261Z,30.31
2019-04-21T18:53:49.328Z,30.49
2019-04-21T18:56:08.091Z,30.61
2019-04-21T18:58:36.454Z,30.81
2019-04-21T19:01:12.647Z,31.01
2019-04-21T19:03:42.990Z,31.20
2019-04-21T19:06:15.230Z,31.32
2019-04-21T19:11:28.579Z,31.75
2019-04-21T19:14:35.713Z,32.00
2019-04-21T19:19:39.296Z,32.41
2019-04-21T19:22:01.800Z,32.74
2019-04-21T19:24:29.137Z,33.05
2019-04-21T19:29:29.749Z,33.53
2019-04-21T19:32:05.780Z,33.84
2019-04-21T19:34:22.374Z,34.08
2019-04-21T19:36:51.293Z,34.41
2019-04-21T19:39:35.533Z,34.70
2019-04-21T19:42:00.540Z,35.05
2019-04-21T19:44:38.269Z,35.29
2019-04-21T19:47:10.853Z,35.63
2019-04-21T19:49:45.698Z,35.90
2019-04-21T19:52:02.005Z,36.17
2019-04-21T19:54:32.027Z,36.33
2019-04-21T19:56:55.523Z,36.77
2019-04-21T19:59:32.431Z,36.85
2019-04-21T20:01:56.316Z,37.11
2019-04-21T20:04:34.321Z,37.37
2019-04-21T20:07:02.782Z,37.72
2019-04-21T20:09:45.076Z,38.21
2019-04-21T20:12:28.136Z,38.17
2019-04-21T20:14:55.043Z,38.39
2019-04-21T20:17:14.925Z,38.43
2019-04-21T20:19:34.199Z,38.54
2019-04-21T20:22:05.294Z,38.67
2019-04-21T20:24:37.811Z,38.72
2019-04-21T20:27:13.661Z,38.91
2019-04-21T20:29:57.673Z,38.99
2019-04-21T20:32:36.638Z,39.21
2019-04-21T20:35:00.872Z,39.26
2019-04-21T20:37:28.426Z,39.26
2019-04-21T20:39:50.482Z,39.31
2019-04-21T20:42:24.251Z,39.27
2019-04-21T20:45:16.035Z,39.49
2019-04-21T20:47:25.665Z,39.80
2019-04-21T20:50:03.321Z,40.12
2019-04-21T20:52:37.002Z,40.20
2019-04-21T20:55:03.550Z,40.42
2019-04-21T20:57:35.196Z,40.46
2019-04-21T21:00:17.219Z,40.75
2019-04-21T21:02:47.032Z,40.84
2019-04-21T21:05:02.947Z,40.94
2019-04-21T21:07:45.933Z,41.05
2019-04-21T21:10:16.647Z,41.14
2019-04-21T21:12:56.249Z,41.43
2019-04-21T21:15:10.032Z,41.47
2019-04-21T21:17:52.351Z,41.71
2019-04-21T21:20:19.632Z,41.72
2019-04-21T21:22:47.838Z,41.90
2019-04-21T21:25:29.087Z,42.09
2019-04-21T21:27:48.304Z,42.14
2019-04-21T21:30:24.612Z,42.31
2019-04-21T21:32:56.157Z,42.50
2019-04-21T21:35:23.180Z,42.83
2019-04-21T21:37:59.549Z,42.87
2019-04-21T21:40:30.559Z,42.92
2019-04-21T21:42:46.135Z,43.30
2019-04-21T21:45:21.392Z,43.16
2019-04-21T21:48:05.670Z,43.28
2019-04-21T21:50:25.121Z,43.41
2019-04-21T21:52:59.916Z,43.55
2019-04-21T21:55:21.544Z,43.68
2019-04-21T21:57:55.369Z,43.71
2019-04-21T22:00:26.316Z,43.90
2019-04-21T22:03:03.549Z,44.04
2019-04-21T22:05:33.101Z,44.21
2019-04-21T22:08:00.555Z,44.19
2019-04-21T22:10:31.361Z,44.33
2019-04-21T22:13:08.224Z,44.27
2019-04-21T22:15:33.796Z,44.37
2019-04-21T22:18:24.611Z,44.45
2019-04-21T22:20:53.749Z,44.44
2019-04-21T22:23:11.325Z,44.46
2019-04-21T22:25:41.684Z,44.45
2019-04-21T22:28:09.587Z,44.58
2019-04-21T22:30:44.199Z,44.49
2019-04-21T22:33:13.978Z,44.54
2019-04-21T22:35:46.289Z,44.61
2019-04-21T22:38:28.571Z,44.71
2019-04-21T22:40:58.032Z,44.84
2019-04-21T22:43:22.708Z,44.98
2019-04-21T22:45:47.312Z,45.06
2019-04-21T22:48:21.001Z,45.06
2019-04-21T22:50:48.566Z,45.08
2019-04-21T22:53:20.945Z,45.14
2019-04-21T22:55:56.283Z,45.24
2019-04-21T22:58:25.949Z,45.33
2019-04-21T23:00:56.877Z,45.36
2019-04-21T23:03:25.208Z,45.47
2019-04-21T23:05:55.906Z,45.43
2019-04-21T23:08:31.812Z,45.63
2019-04-21T23:11:01.634Z,45.63
2019-04-21T23:13:30.743Z,45.72
2019-04-21T23:16:01.476Z,45.92
2019-04-21T23:18:48.045Z,46.05
2019-04-21T23:21:17.453Z,46.21
2019-04-21T23:23:49.650Z,46.25
2019-04-21T23:26:29.824Z,46.42
2019-04-21T23:28:57.116Z,46.53
2019-04-21T23:31:32.468Z,46.65
2019-04-21T23:33:38.318Z,46.82
2019-04-21T23:36:13.905Z,47.16
2019-04-21T23:38:44.273Z,47.19
2019-04-21T23:41:11.286Z,47.40
2019-04-21T23:43:45.995Z,47.40
2019-04-21T23:46:20.267Z,47.58
2019-04-21T23:49:02.442Z,47.69
2019-04-21T23:51:27.496Z,47.77
2019-04-21T23:53:47.096Z,47.93
2019-04-21T23:56:21.696Z,48.00
2019-04-21T23:58:54.937Z,48.15
